createdAt,value
2022-10-17T00:01:04.511Z,1.00
2022-10-17T00:03:49.924Z,1.13
2022-10-17T00:06:29.730Z,1.05
2022-10-17T00:09:13.616Z,1.10
2022-10-17T00:11:58.137Z,1.00
2022-10-17T00:14:41.481Z,1.02
2022-10-17T00:17:32.668Z,1.20
2022-10-17T00:20:45.269Z,1.10
2022-10-17T00:23:25.348Z,1.00
2022-10-17T00:26:21.564Z,1.10
2022-10-17T00:29:04.120Z,0.90
2022-10-17T00:31:40.819Z,1.25
2022-10-17T00:34:44.910Z,1.00
2022-10-17T00:38:12.813Z,1.48
2022-10-17T00:40:50.500Z,1.10
2022-10-17T00:43:44.311Z,0.90
2022-10-17T00:49:57.847Z,1.17
2022-10-17T00:52:50.204Z,0.88
2022-10-17T00:55:57.618Z,1.35
2022-10-17T00:58:57.203Z,1.08
2022-10-17T01:01:51.861Z,1.35
2022-10-17T01:04:37.574Z,1.08
2022-10-17T01:07:41.618Z,1.25
2022-10-17T01:17:36.088Z,1.40
2022-10-17T01:21:48.443Z,1.20
2022-10-17T01:25:06.788Z,1.20
2022-10-17T01:28:27.629Z,1.30
2022-10-17T01:32:19.614Z,1.10
2022-10-17T01:38:56.093Z,1.25
2022-10-17T01:42:00.942Z,1.40
2022-10-17T01:45:12.326Z,1.30
2022-10-17T01:51:17.795Z,1.60
2022-10-17T01:54:06.485Z,1.50
2022-10-17T01:57:19.126Z,1.30
2022-10-17T02:00:11.043Z,1.60
2022-10-17T02:02:51.825Z,1.40
2022-10-17T02:05:30.794Z,1.60
2022-10-17T02:08:14.154Z,1.13
2022-10-17T02:10:51.971Z,1.38
2022-10-17T02:13:58.256Z,1.27
2022-10-17T02:16:39.576Z,1.30
2022-10-17T02:19:37.379Z,1.60
2022-10-17T02:22:20.489Z,1.20
2022-10-17T02:25:04.057Z,1.40
2022-10-17T02:27:50.513Z,1.50
2022-10-17T02:30:31.746Z,1.33
2022-10-17T02:33:09.306Z,1.48
2022-10-17T02:35:50.781Z,1.40
2022-10-17T02:38:38.557Z,1.40
2022-10-17T02:41:21.319Z,1.35
2022-10-17T02:44:02.365Z,1.40
2022-10-17T02:46:43.017Z,1.33
2022-10-17T02:49:29.213Z,1.80
2022-10-17T02:52:14.468Z,1.80
2022-10-17T02:54:49.478Z,1.42
2022-10-17T02:57:36.865Z,1.60
2022-10-17T03:00:16.081Z,1.77
2022-10-17T03:02:52.912Z,1.75
2022-10-17T03:05:33.227Z,2.03
2022-10-17T03:08:05.724Z,1.60
2022-10-17T03:10:36.117Z,1.50
2022-10-17T03:13:14.215Z,2.03
2022-10-17T03:15:52.819Z,1.65
2022-10-17T03:18:28.767Z,1.88
2022-10-17T03:21:03.789Z,1.88
2022-10-17T03:23:42.541Z,1.98
2022-10-17T03:26:20.133Z,1.73
2022-10-17T03:28:56.604Z,1.77
2022-10-17T03:31:29.694Z,1.60
2022-10-17T03:34:01.546Z,1.70
2022-10-17T03:36:38.639Z,1.67
2022-10-17T03:39:08.520Z,1.58
2022-10-17T03:41:38.559Z,1.35
2022-10-17T03:44:10.188Z,1.30
2022-10-17T03:46:48.020Z,1.30
2022-10-17T03:49:18.151Z,1.70
2022-10-17T03:51:49.310Z,1.50
2022-10-17T03:54:17.920Z,1.40
2022-10-17T03:59:23.563Z,1.60
2022-10-17T04:02:11.665Z,1.33
2022-10-17T04:04:41.501Z,1.52
2022-10-17T04:07:10.031Z,1.50
2022-10-17T04:09:39.980Z,1.42
2022-10-17T04:12:08.675Z,1.60
2022-10-17T04:14:47.413Z,1.60
2022-10-17T04:17:17.581Z,1.55
2022-10-17T04:19:50.288Z,1.75
2022-10-17T04:22:18.800Z,1.80
2022-10-17T04:24:47.372Z,1.73
2022-10-17T04:27:22.549Z,1.60
2022-10-17T04:30:00.843Z,1.65
2022-10-17T04:32:54.122Z,1.80
2022-10-17T04:35:28.603Z,1.40
2022-10-17T04:38:00.048Z,1.70
2022-10-17T04:40:30.635Z,1.73
2022-10-17T04:43:00.248Z,1.70
2022-10-17T04:45:32.369Z,1.60
2022-10-17T04:59:40.916Z,1.55
2022-10-17T05:02:12.196Z,1.52
2022-10-17T05:04:43.209Z,1.30
2022-10-17T05:10:50.230Z,1.60
2022-10-17T05:14:01.876Z,1.50
2022-10-17T05:20:15.716Z,1.52
2022-10-17T05:26:38.543Z,1.50
2022-10-17T05:34:17.246Z,1.40
2022-10-17T05:38:02.026Z,1.52
2022-10-17T05:40:42.080Z,1.27
2022-10-17T05:44:09.071Z,1.38
2022-10-17T06:14:08.478Z,1.63
2022-10-17T06:23:47.743Z,1.50
2022-10-17T07:40:22.591Z,2.58
2022-10-17T07:47:08.280Z,2.50
2022-10-17T07:49:42.729Z,2.88
2022-10-17T07:52:25.722Z,3.08
2022-10-17T07:55:05.884Z,2.97
2022-10-17T07:58:42.468Z,3.00
2022-10-17T08:01:22.966Z,3.78
2022-10-17T08:03:53.542Z,2.95
2022-10-17T08:06:21.930Z,2.97
2022-10-17T08:09:03.183Z,2.70
2022-10-17T08:11:50.455Z,3.17
2022-10-17T08:14:32.550Z,3.03
2022-10-17T08:17:38.442Z,2.95
2022-10-17T08:23:55.615Z,2.72
2022-10-17T08:27:16.008Z,3.03
2022-10-17T08:30:00.357Z,2.50
2022-10-17T08:36:49.178Z,2.33
2022-10-17T08:40:20.171Z,2.63
2022-10-17T08:43:48.160Z,2.50
2022-10-17T08:54:23.074Z,2.08
2022-10-17T09:01:37.349Z,1.88
2022-10-17T09:08:19.597Z,2.50
2022-10-17T09:11:07.730Z,1.90
2022-10-17T09:13:54.515Z,2.10
2022-10-17T09:16:53.959Z,2.17
2022-10-17T09:20:10.114Z,2.33
2022-10-17T09:23:09.153Z,2.35
2022-10-17T09:26:25.594Z,2.08
2022-10-17T09:30:13.000Z,2.08
2022-10-17T09:34:06.830Z,2.28
2022-10-17T09:37:35.648Z,1.90
2022-10-17T09:44:07.425Z,2.30
2022-10-17T09:46:50.351Z,2.55
2022-10-17T09:50:05.013Z,1.90
2022-10-17T09:53:02.859Z,2.22
2022-10-17T09:56:10.303Z,1.92
2022-10-17T10:21:37.753Z,1.80
2022-10-17T10:24:14.653Z,1.77
2022-10-17T10:26:49.036Z,1.58
2022-10-17T10:29:31.212Z,1.85
2022-10-17T10:32:10.242Z,1.58
2022-10-17T10:34:50.811Z,1.70
2022-10-17T10:37:27.164Z,1.90
2022-10-17T10:44:06.602Z,2.22
2022-10-17T10:46:34.735Z,2.38
2022-10-17T10:53:08.995Z,3.10
2022-10-17T10:55:45.959Z,2.55
2022-10-17T10:58:27.750Z,2.20
2022-10-17T11:01:04.120Z,2.10
2022-10-17T11:11:43.761Z,1.73
2022-10-17T11:14:24.028Z,2.00
2022-10-17T11:32:22.560Z,2.20
2022-10-17T11:54:09.716Z,1.70
2022-10-17T11:57:13.887Z,2.25
2022-10-17T12:00:09.320Z,2.00
2022-10-17T12:02:43.985Z,1.60
2022-10-17T12:05:23.321Z,1.77
2022-10-17T12:08:00.656Z,1.90
2022-10-17T12:10:40.644Z,1.70
2022-10-17T12:13:46.471Z,1.90
2022-10-17T12:16:51.884Z,1.95
2022-10-17T12:19:52.003Z,1.85
2022-10-17T12:22:34.968Z,1.70
2022-10-17T12:25:04.426Z,1.67
2022-10-17T12:31:54.696Z,1.90
2022-10-17T12:38:50.962Z,1.67
2022-10-17T12:42:04.135Z,2.60
2022-10-17T12:45:18.786Z,2.60
2022-10-17T12:52:32.092Z,2.40
2022-10-17T12:56:13.246Z,2.38
2022-10-17T13:03:07.231Z,1.55
2022-10-17T13:06:09.850Z,2.15
2022-10-17T13:12:04.618Z,1.30
2022-10-17T13:14:36.843Z,1.50
2022-10-17T13:17:09.935Z,1.55
2022-10-17T13:19:50.120Z,1.58
2022-10-17T13:22:24.886Z,1.85
2022-10-17T13:25:16.062Z,2.05
2022-10-17T13:27:46.954Z,1.60
2022-10-17T13:30:30.870Z,2.10
2022-10-17T13:47:48.997Z,1.80
2022-10-17T13:52:36.658Z,1.60
2022-10-17T13:56:27.410Z,2.40
2022-10-17T14:14:27.993Z,1.88
2022-10-17T16:31:02.341Z,5.43
2022-10-17T16:33:31.589Z,8.98
2022-10-17T16:44:19.852Z,2.60
2022-10-17T16:54:06.032Z,2.40
2022-10-17T16:57:21.441Z,2.33
2022-10-17T17:03:49.945Z,2.90
2022-10-17T17:11:39.904Z,2.33
2022-10-17T17:14:36.674Z,2.60
2022-10-17T17:18:21.477Z,2.50
2022-10-17T17:21:47.343Z,2.90
2022-10-17T17:24:57.865Z,2.83
2022-10-17T17:31:08.849Z,3.50
2022-10-17T17:36:33.977Z,4.32
2022-10-17T17:39:07.492Z,4.10
2022-10-17T17:41:42.727Z,3.63
2022-10-17T17:44:17.903Z,3.60
2022-10-17T17:46:51.242Z,3.20
2022-10-17T17:49:19.604Z,4.10
2022-10-17T17:51:58.658Z,3.60
2022-10-17T17:54:30.176Z,3.70
2022-10-17T17:56:58.491Z,3.40
2022-10-17T17:59:27.979Z,3.20
2022-10-17T18:01:59.512Z,3.55
2022-10-17T18:04:34.498Z,3.38
2022-10-17T18:07:44.804Z,3.00
2022-10-17T18:11:08.358Z,2.80
2022-10-17T18:14:08.450Z,3.10
2022-10-17T18:17:01.552Z,2.90
2022-10-17T18:19:59.283Z,2.92
2022-10-17T18:23:00.514Z,3.05
2022-10-17T18:25:45.634Z,2.67
2022-10-17T18:28:35.799Z,2.97
2022-10-17T18:31:32.770Z,3.35
2022-10-17T18:34:17.646Z,3.10
2022-10-17T18:37:04.133Z,3.08
2022-10-17T18:39:50.438Z,3.10
2022-10-17T18:42:25.680Z,2.95
2022-10-17T18:44:54.435Z,2.72
2022-10-17T18:47:33.551Z,2.90
2022-10-17T18:50:07.828Z,2.80
2022-10-17T18:52:55.247Z,3.40
2022-10-17T18:55:40.222Z,3.00
2022-10-17T18:58:28.929Z,2.95
2022-10-17T19:01:09.889Z,3.10
2022-10-17T19:04:06.258Z,3.33
2022-10-17T19:06:44.017Z,3.08
2022-10-17T19:09:20.384Z,2.70
2022-10-17T19:12:11.413Z,3.28
2022-10-17T19:14:57.290Z,2.95
2022-10-17T19:17:40.317Z,3.30
2022-10-17T19:20:12.879Z,3.08
2022-10-17T19:22:41.894Z,3.55
2022-10-17T19:25:13.221Z,3.17
2022-10-17T19:27:45.059Z,3.15
2022-10-17T19:30:17.410Z,2.97
2022-10-17T19:33:38.766Z,3.20
2022-10-17T19:36:33.953Z,2.85
2022-10-17T19:39:11.645Z,3.10
2022-10-17T19:42:06.852Z,3.17
2022-10-17T19:44:41.380Z,2.95
2022-10-17T19:47:35.291Z,3.17
2022-10-17T19:50:04.913Z,3.10
2022-10-17T19:52:36.700Z,2.90
2022-10-17T19:55:05.346Z,2.80
2022-10-17T19:57:37.516Z,2.42
2022-10-17T20:00:40.956Z,2.83
2022-10-17T20:03:18.276Z,3.10
2022-10-17T20:06:05.618Z,3.10
2022-10-17T20:08:48.766Z,2.90
2022-10-17T20:11:41.077Z,3.00
2022-10-17T20:14:23.659Z,2.88
2022-10-17T20:17:10.172Z,2.60
2022-10-17T20:20:17.052Z,2.95
2022-10-17T20:24:48.711Z,2.80
2022-10-17T20:27:33.239Z,3.10
2022-10-17T20:30:20.921Z,3.00
2022-10-17T20:33:32.998Z,3.08
2022-10-17T20:40:22.645Z,3.10
2022-10-17T20:43:41.738Z,2.97
2022-10-17T20:57:41.971Z,3.30
2022-10-17T21:03:49.408Z,2.97
2022-10-17T21:15:00.860Z,2.97
2022-10-17T21:25:51.939Z,3.20
2022-10-17T21:40:30.409Z,3.38
2022-10-17T21:43:01.450Z,3.35
2022-10-17T21:46:30.458Z,3.25
2022-10-17T21:49:40.276Z,3.70
2022-10-17T21:53:40.918Z,3.60
2022-10-17T21:56:23.968Z,3.67
2022-10-17T21:59:41.871Z,3.80
2022-10-17T22:06:42.375Z,3.40
2022-10-17T22:09:40.623Z,3.22
2022-10-17T22:13:00.950Z,3.13
2022-10-17T22:28:52.264Z,3.65
2022-10-17T22:31:58.706Z,3.25
2022-10-17T22:35:35.839Z,3.17
2022-10-17T22:38:30.979Z,3.70
2022-10-17T22:41:27.828Z,3.40
2022-10-17T22:51:46.622Z,3.17
2022-10-17T23:07:02.802Z,2.75
2022-10-17T23:10:15.323Z,3.67
2022-10-17T23:28:31.089Z,3.80
2022-10-17T23:31:46.568Z,3.17
2022-10-17T23:43:27.040Z,3.67
